sensor_id;sensor_type;location;lat;lon;timestamp;temperature;humidity
8002;DHT22;4046;48.774;8.732;2024-01-15T00:00:57;22.10;59.80
8002;DHT22;4046;48.774;8.732;2024-01-15T00:03:32;22.10;59.80
8002;DHT22;4046;48.774;8.732;2024-01-15T00:05:58;22.10;59.80
8002;DHT22;4046;48.774;8.732;2024-01-15T00:08:23;22.10;59.80
8002;DHT22;4046;48.774;8.732;2024-01-15T00:10:49;22.10;59.80
8002;DHT22;4046;48.774;8.732;2024-01-15T00:20:07;22.10;59.70
8002;DHT22;4046;48.774;8.732;2024-01-15T00:22:55;22.10;59.80
8002;DHT22;4046;48.774;8.732;2024-01-15T00:25:20;22.10;59.80
8002;DHT22;4046;48.774;8.732;2024-01-15T00:28:31;22.20;59.80
8002;DHT22;4046;48.774;8.732;2024-01-15T00:31:27;22.10;59.70
8002;DHT22;4046;48.774;8.732;2024-01-15T00:33:53;22.20;59.80
8002;DHT22;4046;48.774;8.732;2024-01-15T00:36:55;22.10;59.70
8002;DHT22;4046;48.774;8.732;2024-01-15T00:39:21;22.10;59.70
8002;DHT22;4046;48.774;8.732;2024-01-15T00:42:15;22.10;59.70
8002;DHT22;4046;48.774;8.732;2024-01-15T00:45:16;22.10;59.70
8002;DHT22;4046;48.774;8.732;2024-01-15T00:47:42;22.50;60.10
8002;DHT22;4046;48.774;8.732;2024-01-15T00:53:44;22.20;59.80
8002;DHT22;4046;48.774;8.732;2024-01-15T00:56:10;22.10;59.70
8002;DHT22;4046;48.774;8.732;2024-01-15T00:59:09;22.10;59.70
8002;DHT22;4046;48.774;8.732;2024-01-15T01:05:26;22.20;59.80
8002;DHT22;4046;48.774;8.732;2024-01-15T01:07:52;22.10;59.70
8002;DHT22;4046;48.774;8.732;2024-01-15T01:10:23;22.10;59.70
8002;DHT22;4046;48.774;8.732;2024-01-15T01:12:49;22.10;59.70
8002;DHT22;4046;48.774;8.732;2024-01-15T01:19:15;22.20;59.80
8002;DHT22;4046;48.774;8.732;2024-01-15T01:22:21;22.20;59.80
8002;DHT22;4046;48.774;8.732;2024-01-15T01:28:29;22.20;59.80
8002;DHT22;4046;48.774;8.732;2024-01-15T01:31:34;22.10;59.70
8002;DHT22;4046;48.774;8.732;2024-01-15T01:34:49;22.10;59.80
8002;DHT22;4046;48.774;8.732;2024-01-15T01:37:51;22.20;59.90
8002;DHT22;4046;48.774;8.732;2024-01-15T01:47:13;22.20;59.90
8002;DHT22;4046;48.774;8.732;2024-01-15T01:49:40;22.10;59.80
8002;DHT22;4046;48.774;8.732;2024-01-15T01:52:38;22.10;59.70
8002;DHT22;4046;48.774;8.732;2024-01-15T01:55:53;22.20;59.80
8002;DHT22;4046;48.774;8.732;2024-01-15T02:01:49;22.20;59.80
8002;DHT22;4046;48.774;8.732;2024-01-15T02:08:06;22.10;59.70
8002;DHT22;4046;48.774;8.732;2024-01-15T02:11:42;22.20;59.90
8002;DHT22;4046;48.774;8.732;2024-01-15T02:17:36;22.10;59.70
8002;DHT22;4046;48.774;8.732;2024-01-15T02:20:41;22.20;59.80
8002;DHT22;4046;48.774;8.732;2024-01-15T02:23:53;22.20;59.80
8002;DHT22;4046;48.774;8.732;2024-01-15T02:26:19;22.20;59.80
8002;DHT22;4046;48.774;8.732;2024-01-15T02:29:21;22.20;59.80
8002;DHT22;4046;48.774;8.732;2024-01-15T02:40:17;22.10;59.70
8002;DHT22;4046;48.774;8.732;2024-01-15T02:43:09;22.20;59.80
8002;DHT22;4046;48.774;8.732;2024-01-15T02:45:35;22.20;59.80
8002;DHT22;4046;48.774;8.732;2024-01-15T02:52:05;22.20;59.80
8002;DHT22;4046;48.774;8.732;2024-01-15T02:54:31;22.20;59.80
8002;DHT22;4046;48.774;8.732;2024-01-15T02:57:28;22.20;59.80
8002;DHT22;4046;48.774;8.732;2024-01-15T03:00:00;22.20;59.80
8002;DHT22;4046;48.774;8.732;2024-01-15T03:06:20;22.20;59.80
8002;DHT22;4046;48.774;8.732;2024-01-15T03:09:27;22.20;59.80
8002;DHT22;4046;48.774;8.732;2024-01-15T03:16:11;22.20;59.80
8002;DHT22;4046;48.774;8.732;2024-01-15T03:19:30;22.20;59.80
8002;DHT22;4046;48.774;8.732;2024-01-15T03:21:56;22.20;59.80
8002;DHT22;4046;48.774;8.732;2024-01-15T03:28:09;22.20;59.80
8002;DHT22;4046;48.774;8.732;2024-01-15T03:31:04;22.20;59.80
8002;DHT22;4046;48.774;8.732;2024-01-15T03:38:13;22.20;59.80
8002;DHT22;4046;48.774;8.732;2024-01-15T03:40:39;22.20;59.80
8002;DHT22;4046;48.774;8.732;2024-01-15T03:46:07;22.20;59.80
8002;DHT22;4046;48.774;8.732;2024-01-15T03:48:32;22.20;59.80
8002;DHT22;4046;48.774;8.732;2024-01-15T03:51:43;22.20;59.80
8002;DHT22;4046;48.774;8.732;2024-01-15T03:54:08;22.20;59.80
8002;DHT22;4046;48.774;8.732;2024-01-15T03:56:34;22.20;59.80
8002;DHT22;4046;48.774;8.732;2024-01-15T04:02:13;22.20;59.70
8002;DHT22;4046;48.774;8.732;2024-01-15T04:05:16;22.30;59.80
8002;DHT22;4046;48.774;8.732;2024-01-15T04:07:41;22.30;59.80
8002;DHT22;4046;48.774;8.732;2024-01-15T04:10:07;22.30;59.80
8002;DHT22;4046;48.774;8.732;2024-01-15T04:26:18;22.30;59.80
8002;DHT22;4046;48.774;8.732;2024-01-15T04:28:44;22.20;59.70
8002;DHT22;4046;48.774;8.732;2024-01-15T04:31:10;22.20;59.70
8002;DHT22;4046;48.774;8.732;2024-01-15T04:37:58;22.20;59.70
8002;DHT22;4046;48.774;8.732;2024-01-15T04:40:27;22.20;59.80
8002;DHT22;4046;48.774;8.732;2024-01-15T04:47:59;22.20;59.80
8002;DHT22;4046;48.774;8.732;2024-01-15T04:54:00;22.20;59.70
8002;DHT22;4046;48.774;8.732;2024-01-15T04:56:29;22.50;60.00
8002;DHT22;4046;48.774;8.732;2024-01-15T04:59:00;22.20;59.80
8002;DHT22;4046;48.774;8.732;2024-01-15T05:02:01;22.60;60.10
8002;DHT22;4046;48.774;8.732;2024-01-15T05:04:26;22.20;59.70
8002;DHT22;4046;48.774;8.732;2024-01-15T05:07:32;22.30;59.80
8002;DHT22;4046;48.774;8.732;2024-01-15T05:10:07;22.30;59.80
8002;DHT22;4046;48.774;8.732;2024-01-15T05:12:33;22.30;59.80
8002;DHT22;4046;48.774;8.732;2024-01-15T05:18:44;22.30;59.70
8002;DHT22;4046;48.774;8.732;2024-01-15T05:21:21;22.30;59.80
8002;DHT22;4046;48.774;8.732;2024-01-15T05:24:10;22.30;59.80
8002;DHT22;4046;48.774;8.732;2024-01-15T05:26:36;22.30;59.80
8002;DHT22;4046;48.774;8.732;2024-01-15T05:29:18;22.30;59.70
8002;DHT22;4046;48.774;8.732;2024-01-15T05:31:55;22.30;59.80
8002;DHT22;4046;48.774;8.732;2024-01-15T05:34:24;22.30;59.70
8002;DHT22;4046;48.774;8.732;2024-01-15T05:36:50;22.30;59.70
8002;DHT22;4046;48.774;8.732;2024-01-15T05:46:46;22.30;59.80
8002;DHT22;4046;48.774;8.732;2024-01-15T05:50:16;22.30;59.70
8002;DHT22;4046;48.774;8.732;2024-01-15T05:56:34;22.30;59.70
8002;DHT22;4046;48.774;8.732;2024-01-15T05:58:59;22.30;59.80
8002;DHT22;4046;48.774;8.732;2024-01-15T06:04:33;22.30;59.70
8002;DHT22;4046;48.774;8.732;2024-01-15T06:15:07;22.30;59.70
8002;DHT22;4046;48.774;8.732;2024-01-15T06:21:25;22.30;59.70
8002;DHT22;4046;48.774;8.732;2024-01-15T06:24:22;22.30;59.70
8002;DHT22;4046;48.774;8.732;2024-01-15T06:26:47;22.30;59.70
8002;DHT22;4046;48.774;8.732;2024-01-15T06:33:18;22.30;59.70
8002;DHT22;4046;48.774;8.732;2024-01-15T06:36:06;22.30;59.80
8002;DHT22;4046;48.774;8.732;2024-01-15T06:38:50;22.30;59.70
8002;DHT22;4046;48.774;8.732;2024-01-15T06:41:16;22.30;59.70
8002;DHT22;4046;48.774;8.732;2024-01-15T06:47:30;22.30;59.70
8002;DHT22;4046;48.774;8.732;2024-01-15T06:50:10;22.30;59.70
8002;DHT22;4046;48.774;8.732;2024-01-15T06:52:56;22.30;59.70
8002;DHT22;4046;48.774;8.732;2024-01-15T06:55:46;22.30;59.70
8002;DHT22;4046;48.774;8.732;2024-01-15T07:05:12;22.30;59.70
8002;DHT22;4046;48.774;8.732;2024-01-15T07:12:14;22.30;59.70
8002;DHT22;4046;48.774;8.732;2024-01-15T07:14:41;22.30;59.70
8002;DHT22;4046;48.774;8.732;2024-01-15T07:17:08;22.30;59.70
8002;DHT22;4046;48.774;8.732;2024-01-15T07:22:51;22.30;59.70
8002;DHT22;4046;48.774;8.732;2024-01-15T07:29:00;22.30;59.70
8002;DHT22;4046;48.774;8.732;2024-01-15T07:35:18;22.30;59.70
8002;DHT22;4046;48.774;8.732;2024-01-15T07:37:47;22.30;59.70
8002;DHT22;4046;48.774;8.732;2024-01-15T07:40:13;22.30;59.70
8002;DHT22;4046;48.774;8.732;2024-01-15T07:42:58;22.30;59.70
8002;DHT22;4046;48.774;8.732;2024-01-15T07:48:47;22.30;59.70
8002;DHT22;4046;48.774;8.732;2024-01-15T07:51:13;22.30;59.60
8002;DHT22;4046;48.774;8.732;2024-01-15T07:53:39;22.30;59.70
8002;DHT22;4046;48.774;8.732;2024-01-15T08:03:29;22.30;59.70
8002;DHT22;4046;48.774;8.732;2024-01-15T08:06:31;22.30;59.70
8002;DHT22;4046;48.774;8.732;2024-01-15T08:09:48;22.30;59.70
8002;DHT22;4046;48.774;8.732;2024-01-15T08:16:54;22.30;59.60
8002;DHT22;4046;48.774;8.732;2024-01-15T08:19:27;22.30;59.60
8002;DHT22;4046;48.774;8.732;2024-01-15T08:25:30;22.30;59.70
8002;DHT22;4046;48.774;8.732;2024-01-15T08:28:28;22.30;59.70
8002;DHT22;4046;48.774;8.732;2024-01-15T08:35:05;22.30;59.60
8002;DHT22;4046;48.774;8.732;2024-01-15T08:38:37;22.30;59.60
8002;DHT22;4046;48.774;8.732;2024-01-15T08:45:51;22.30;59.60
8002;DHT22;4046;48.774;8.732;2024-01-15T08:49:07;22.30;59.60
8002;DHT22;4046;48.774;8.732;2024-01-15T08:51:33;22.30;59.70
8002;DHT22;4046;48.774;8.732;2024-01-15T08:53:59;22.30;59.70
8002;DHT22;4046;48.774;8.732;2024-01-15T08:56:34;22.30;59.70
8002;DHT22;4046;48.774;8.732;2024-01-15T08:59:15;22.30;59.60
8002;DHT22;4046;48.774;8.732;2024-01-15T09:02:40;22.30;59.60
8002;DHT22;4046;48.774;8.732;2024-01-15T09:05:11;22.30;59.60
8002;DHT22;4046;48.774;8.732;2024-01-15T09:07:46;22.30;59.60
8002;DHT22;4046;48.774;8.732;2024-01-15T09:10:36;22.40;59.70
8002;DHT22;4046;48.774;8.732;2024-01-15T09:17:04;22.30;59.60
8002;DHT22;4046;48.774;8.732;2024-01-15T09:21:07;22.30;59.60
8002;DHT22;4046;48.774;8.732;2024-01-15T09:34:42;22.00;59.60
8002;DHT22;4046;48.774;8.732;2024-01-15T09:37:27;22.00;59.70
8002;DHT22;4046;48.774;8.732;2024-01-15T09:39:53;22.00;59.70
8002;DHT22;4046;48.774;8.732;2024-01-15T09:42:23;22.00;59.70
8002;DHT22;4046;48.774;8.732;2024-01-15T09:45:29;21.90;59.60
8002;DHT22;4046;48.774;8.732;2024-01-15T09:48:49;21.90;59.70
8002;DHT22;4046;48.774;8.732;2024-01-15T09:51:21;21.90;59.70
8002;DHT22;4046;48.774;8.732;2024-01-15T09:53:59;21.90;59.70
8002;DHT22;4046;48.774;8.732;2024-01-15T10:00:44;21.90;59.70
8002;DHT22;4046;48.774;8.732;2024-01-15T10:03:10;21.80;59.70
8002;DHT22;4046;48.774;8.732;2024-01-15T10:09:39;21.80;59.70
8002;DHT22;4046;48.774;8.732;2024-01-15T10:15:38;21.80;59.70
8002;DHT22;4046;48.774;8.732;2024-01-15T10:18:35;21.70;59.60
8002;DHT22;4046;48.774;8.732;2024-01-15T10:22:00;21.70;59.70
8002;DHT22;4046;48.774;8.732;2024-01-15T10:28:27;21.70;59.70
8002;DHT22;4046;48.774;8.732;2024-01-15T10:30:57;21.70;59.70
8002;DHT22;4046;48.774;8.732;2024-01-15T10:33:48;21.70;59.70
8002;DHT22;4046;48.774;8.732;2024-01-15T10:36:29;21.70;59.70
8002;DHT22;4046;48.774;8.732;2024-01-15T10:46:46;21.60;59.70
8002;DHT22;4046;48.774;8.732;2024-01-15T10:53:35;21.60;59.70
8002;DHT22;4046;48.774;8.732;2024-01-15T10:56:01;21.60;59.70
8002;DHT22;4046;48.774;8.732;2024-01-15T10:58:40;21.60;59.70
8002;DHT22;4046;48.774;8.732;2024-01-15T11:06:24;21.60;59.70
8002;DHT22;4046;48.774;8.732;2024-01-15T11:09:30;21.60;59.80
8002;DHT22;4046;48.774;8.732;2024-01-15T11:12:18;21.60;59.80
8002;DHT22;4046;48.774;8.732;2024-01-15T11:15:04;21.50;59.70
8002;DHT22;4046;48.774;8.732;2024-01-15T11:21:45;21.50;59.80
8002;DHT22;4046;48.774;8.732;2024-01-15T11:24:35;21.50;59.80
8002;DHT22;4046;48.774;8.732;2024-01-15T11:38:01;21.50;59.80
8002;DHT22;4046;48.774;8.732;2024-01-15T11:40:49;21.50;59.80
8002;DHT22;4046;48.774;8.732;2024-01-15T11:43:45;21.50;59.80
8002;DHT22;4046;48.774;8.732;2024-01-15T11:46:11;21.40;59.70
8002;DHT22;4046;48.774;8.732;2024-01-15T11:48:50;21.50;59.80
8002;DHT22;4046;48.774;8.732;2024-01-15T11:58:32;21.40;59.70
8002;DHT22;4046;48.774;8.732;2024-01-15T12:01:18;21.40;59.70
8002;DHT22;4046;48.774;8.732;2024-01-15T12:03:50;21.40;59.70
8002;DHT22;4046;48.774;8.732;2024-01-15T12:14:09;21.40;59.70
8002;DHT22;4046;48.774;8.732;2024-01-15T12:17:08;21.40;59.80
8002;DHT22;4046;48.774;8.732;2024-01-15T12:19:54;21.40;59.80
8002;DHT22;4046;48.774;8.732;2024-01-15T12:26:43;21.40;59.80
8002;DHT22;4046;48.774;8.732;2024-01-15T12:37:20;21.30;59.70
8002;DHT22;4046;48.774;8.732;2024-01-15T12:43:22;21.40;59.80
8002;DHT22;4046;48.774;8.732;2024-01-15T12:45:49;21.30;59.80
8002;DHT22;4046;48.774;8.732;2024-01-15T12:48:16;21.30;59.80
8002;DHT22;4046;48.774;8.732;2024-01-15T12:54:45;21.40;59.80
8002;DHT22;4046;48.774;8.732;2024-01-15T12:58:07;21.40;59.80
8002;DHT22;4046;48.774;8.732;2024-01-15T13:01:10;21.40;59.80
8002;DHT22;4046;48.774;8.732;2024-01-15T13:03:45;21.30;59.70
8002;DHT22;4046;48.774;8.732;2024-01-15T13:09:46;21.30;59.70
8002;DHT22;4046;48.774;8.732;2024-01-15T13:12:12;21.30;59.80
8002;DHT22;4046;48.774;8.732;2024-01-15T13:15:07;21.30;59.80
8002;DHT22;4046;48.774;8.732;2024-01-15T13:21:31;21.30;59.80
8002;DHT22;4046;48.774;8.732;2024-01-15T13:23:56;21.30;59.80
8002;DHT22;4046;48.774;8.732;2024-01-15T13:30:19;21.30;59.70
8002;DHT22;4046;48.774;8.732;2024-01-15T13:35:48;21.30;59.80
8002;DHT22;4046;48.774;8.732;2024-01-15T13:42:02;21.30;59.80
8002;DHT22;4046;48.774;8.732;2024-01-15T13:44:28;21.40;59.90
8002;DHT22;4046;48.774;8.732;2024-01-15T13:47:22;21.30;59.80
8002;DHT22;4046;48.774;8.732;2024-01-15T13:50:30;20.90;59.50
8002;DHT22;4046;48.774;8.732;2024-01-15T13:53:28;21.30;59.80
8002;DHT22;4046;48.774;8.732;2024-01-15T14:04:12;21.30;59.80
8002;DHT22;4046;48.774;8.732;2024-01-15T14:17:37;21.20;60.50
8002;DHT22;4046;48.774;8.732;2024-01-15T14:20:17;21.30;59.90
8002;DHT22;4046;48.774;8.732;2024-01-15T14:23:07;21.30;59.90
8002;DHT22;4046;48.774;8.732;2024-01-15T14:26:09;21.30;59.90
8002;DHT22;4046;48.774;8.732;2024-01-15T14:28:59;21.30;59.90
8002;DHT22;4046;48.774;8.732;2024-01-15T14:32:12;21.30;59.90
8002;DHT22;4046;48.774;8.732;2024-01-15T14:38:01;21.30;59.90
8002;DHT22;4046;48.774;8.732;2024-01-15T14:44:21;21.30;59.90
8002;DHT22;4046;48.774;8.732;2024-01-15T14:46:47;21.20;59.80
8002;DHT22;4046;48.774;8.732;2024-01-15T14:49:42;21.20;59.80
8002;DHT22;4046;48.774;8.732;2024-01-15T14:52:30;21.20;59.80
8002;DHT22;4046;48.774;8.732;2024-01-15T14:58:28;21.20;59.80
8002;DHT22;4046;48.774;8.732;2024-01-15T15:04:35;21.20;59.80
8002;DHT22;4046;48.774;8.732;2024-01-15T15:14:28;21.20;59.80
8002;DHT22;4046;48.774;8.732;2024-01-15T15:16:54;21.20;59.90
8002;DHT22;4046;48.774;8.732;2024-01-15T15:26:32;21.20;60.60
8002;DHT22;4046;48.774;8.732;2024-01-15T15:29:24;21.20;59.80
8002;DHT22;4046;48.774;8.732;2024-01-15T15:35:48;21.10;59.80
8002;DHT22;4046;48.774;8.732;2024-01-15T15:38:35;20.70;59.50
8002;DHT22;4046;48.774;8.732;2024-01-15T15:41:20;21.10;59.80
8002;DHT22;4046;48.774;8.732;2024-01-15T15:48:12;21.20;59.90
8002;DHT22;4046;48.774;8.732;2024-01-15T15:51:22;21.20;59.90
8002;DHT22;4046;48.774;8.732;2024-01-15T15:54:44;21.10;59.80
8002;DHT22;4046;48.774;8.732;2024-01-15T15:57:57;21.10;59.80
8002;DHT22;4046;48.774;8.732;2024-01-15T16:01:22;21.10;59.90
8002;DHT22;4046;48.774;8.732;2024-01-15T16:03:57;21.10;59.90
8002;DHT22;4046;48.774;8.732;2024-01-15T16:10:43;21.10;59.90
8002;DHT22;4046;48.774;8.732;2024-01-15T16:13:52;21.10;59.90
8002;DHT22;4046;48.774;8.732;2024-01-15T16:16:18;21.10;59.90
8002;DHT22;4046;48.774;8.732;2024-01-15T16:22:07;21.10;59.90
8002;DHT22;4046;48.774;8.732;2024-01-15T16:25:01;21.10;59.80
8002;DHT22;4046;48.774;8.732;2024-01-15T16:28:16;21.10;59.90
8002;DHT22;4046;48.774;8.732;2024-01-15T16:31:48;21.10;59.80
8002;DHT22;4046;48.774;8.732;2024-01-15T16:35:15;21.10;59.90
8002;DHT22;4046;48.774;8.732;2024-01-15T16:38:13;21.10;59.90
8002;DHT22;4046;48.774;8.732;2024-01-15T16:41:48;21.10;59.90
8002;DHT22;4046;48.774;8.732;2024-01-15T16:45:04;21.10;59.90
8002;DHT22;4046;48.774;8.732;2024-01-15T16:51:26;21.10;59.90
8002;DHT22;4046;48.774;8.732;2024-01-15T16:54:03;21.10;59.90
8002;DHT22;4046;48.774;8.732;2024-01-15T17:00:16;21.10;59.90
8002;DHT22;4046;48.774;8.732;2024-01-15T17:02:42;21.10;59.90
8002;DHT22;4046;48.774;8.732;2024-01-15T17:08:58;21.10;59.90
8002;DHT22;4046;48.774;8.732;2024-01-15T17:18:38;21.30;60.00
8002;DHT22;4046;48.774;8.732;2024-01-15T17:21:37;21.40;60.00
8002;DHT22;4046;48.774;8.732;2024-01-15T17:29:12;21.40;59.90
8002;DHT22;4046;48.774;8.732;2024-01-15T17:31:57;21.50;59.90
8002;DHT22;4046;48.774;8.732;2024-01-15T17:37:29;21.50;59.90
8002;DHT22;4046;48.774;8.732;2024-01-15T17:40:13;21.60;59.80
8002;DHT22;4046;48.774;8.732;2024-01-15T17:42:39;21.60;59.80
8002;DHT22;4046;48.774;8.732;2024-01-15T17:45:06;21.60;59.80
8002;DHT22;4046;48.774;8.732;2024-01-15T17:51:36;21.70;59.80
8002;DHT22;4046;48.774;8.732;2024-01-15T17:54:25;21.70;59.80
8002;DHT22;4046;48.774;8.732;2024-01-15T18:04:41;21.80;59.80
8002;DHT22;4046;48.774;8.732;2024-01-15T18:07:45;21.80;59.80
8002;DHT22;4046;48.774;8.732;2024-01-15T18:10:45;22.10;60.00
8002;DHT22;4046;48.774;8.732;2024-01-15T18:13:11;21.80;59.60
8002;DHT22;4046;48.774;8.732;2024-01-15T18:15:37;21.70;59.00
8002;DHT22;4046;48.774;8.732;2024-01-15T18:18:03;21.70;59.00
8002;DHT22;4046;48.774;8.732;2024-01-15T18:21:04;21.70;58.80
8002;DHT22;4046;48.774;8.732;2024-01-15T18:23:30;21.70;58.70
8002;DHT22;4046;48.774;8.732;2024-01-15T18:26:23;21.70;58.50
8002;DHT22;4046;48.774;8.732;2024-01-15T18:28:49;21.70;58.70
8002;DHT22;4046;48.774;8.732;2024-01-15T18:31:15;21.70;58.80
8002;DHT22;4046;48.774;8.732;2024-01-15T18:33:41;21.80;59.00
8002;DHT22;4046;48.774;8.732;2024-01-15T18:36:07;21.90;59.10
8002;DHT22;4046;48.774;8.732;2024-01-15T18:38:33;21.90;59.10
8002;DHT22;4046;48.774;8.732;2024-01-15T18:41:00;21.90;59.10
8002;DHT22;4046;48.774;8.732;2024-01-15T18:43:29;21.90;59.10
8002;DHT22;4046;48.774;8.732;2024-01-15T18:46:10;22.00;59.20
8002;DHT22;4046;48.774;8.732;2024-01-15T18:48:36;22.00;59.20
8002;DHT22;4046;48.774;8.732;2024-01-15T18:51:07;22.10;59.30
8002;DHT22;4046;48.774;8.732;2024-01-15T18:54:12;22.10;59.20
8002;DHT22;4046;48.774;8.732;2024-01-15T18:56:41;22.10;59.20
8002;DHT22;4046;48.774;8.732;2024-01-15T19:02:50;22.10;59.20
8002;DHT22;4046;48.774;8.732;2024-01-15T19:05:19;22.20;59.40
8002;DHT22;4046;48.774;8.732;2024-01-15T19:07:44;22.20;59.40
8002;DHT22;4046;48.774;8.732;2024-01-15T19:10:18;22.20;59.40
8002;DHT22;4046;48.774;8.732;2024-01-15T19:13:09;22.20;59.30
8002;DHT22;4046;48.774;8.732;2024-01-15T19:19:27;22.20;59.30
8002;DHT22;4046;48.774;8.732;2024-01-15T19:25:19;22.30;59.40
8002;DHT22;4046;48.774;8.732;2024-01-15T19:27:44;22.30;59.40
8002;DHT22;4046;48.774;8.732;2024-01-15T19:30:18;22.00;59.20
8002;DHT22;4046;48.774;8.732;2024-01-15T19:32:44;22.30;59.30
8002;DHT22;4046;48.774;8.732;2024-01-15T19:35:10;22.30;59.30
8002;DHT22;4046;48.774;8.732;2024-01-15T19:37:36;22.50;59.50
8002;DHT22;4046;48.774;8.732;2024-01-15T19:47:32;22.40;59.40
8002;DHT22;4046;48.774;8.732;2024-01-15T19:49:58;22.40;59.40
8002;DHT22;4046;48.774;8.732;2024-01-15T19:52:23;22.40;59.50
8002;DHT22;4046;48.774;8.732;2024-01-15T19:55:20;22.40;59.50
8002;DHT22;4046;48.774;8.732;2024-01-15T19:57:46;22.40;59.40
8002;DHT22;4046;48.774;8.732;2024-01-15T20:00:13;22.40;59.40
8002;DHT22;4046;48.774;8.732;2024-01-15T20:02:39;22.40;59.40
8002;DHT22;4046;48.774;8.732;2024-01-15T20:08:32;22.40;59.40
8002;DHT22;4046;48.774;8.732;2024-01-15T20:10:58;22.40;59.40
8002;DHT22;4046;48.774;8.732;2024-01-15T20:13:24;22.40;59.40
8002;DHT22;4046;48.774;8.732;2024-01-15T20:15:50;22.50;59.50
8002;DHT22;4046;48.774;8.732;2024-01-15T20:19:15;22.50;59.50
8002;DHT22;4046;48.774;8.732;2024-01-15T20:21:51;22.50;59.50
8002;DHT22;4046;48.774;8.732;2024-01-15T20:24:17;22.40;59.40
8002;DHT22;4046;48.774;8.732;2024-01-15T20:26:45;22.40;59.50
8002;DHT22;4046;48.774;8.732;2024-01-15T20:29:10;22.40;59.40
8002;DHT22;4046;48.774;8.732;2024-01-15T20:31:36;22.40;59.50
8002;DHT22;4046;48.774;8.732;2024-01-15T20:34:03;22.50;59.60
8002;DHT22;4046;48.774;8.732;2024-01-15T20:36:28;22.50;59.60
8002;DHT22;4046;48.774;8.732;2024-01-15T20:38:54;22.50;59.50
8002;DHT22;4046;48.774;8.732;2024-01-15T20:41:42;22.50;59.50
8002;DHT22;4046;48.774;8.732;2024-01-15T20:45:05;22.40;59.40
8002;DHT22;4046;48.774;8.732;2024-01-15T20:47:54;22.40;59.50
8002;DHT22;4046;48.774;8.732;2024-01-15T20:50:21;22.40;59.50
8002;DHT22;4046;48.774;8.732;2024-01-15T20:52:47;22.40;59.50
8002;DHT22;4046;48.774;8.732;2024-01-15T20:55:12;22.40;59.50
8002;DHT22;4046;48.774;8.732;2024-01-15T21:01:11;22.40;59.50
8002;DHT22;4046;48.774;8.732;2024-01-15T21:03:37;22.40;59.60
8002;DHT22;4046;48.774;8.732;2024-01-15T21:06:03;22.40;59.50
8002;DHT22;4046;48.774;8.732;2024-01-15T21:08:28;22.50;59.60
8002;DHT22;4046;48.774;8.732;2024-01-15T21:11:09;22.50;59.60
8002;DHT22;4046;48.774;8.732;2024-01-15T21:14:12;22.40;59.50
8002;DHT22;4046;48.774;8.732;2024-01-15T21:16:44;22.40;59.50
8002;DHT22;4046;48.774;8.732;2024-01-15T21:19:10;22.40;59.60
8002;DHT22;4046;48.774;8.732;2024-01-15T21:21:36;22.40;59.60
8002;DHT22;4046;48.774;8.732;2024-01-15T21:24:13;22.50;59.60
8002;DHT22;4046;48.774;8.732;2024-01-15T21:26:41;22.40;59.50
8002;DHT22;4046;48.774;8.732;2024-01-15T21:29:08;22.40;59.60
8002;DHT22;4046;48.774;8.732;2024-01-15T21:31:40;22.40;59.60
8002;DHT22;4046;48.774;8.732;2024-01-15T21:37:41;22.50;59.60
8002;DHT22;4046;48.774;8.732;2024-01-15T21:40:09;22.50;59.60
8002;DHT22;4046;48.774;8.732;2024-01-15T21:42:59;22.40;59.60
8002;DHT22;4046;48.774;8.732;2024-01-15T21:45:25;22.40;59.60
8002;DHT22;4046;48.774;8.732;2024-01-15T21:47:50;22.40;59.60
8002;DHT22;4046;48.774;8.732;2024-01-15T22:05:20;22.40;59.70
8002;DHT22;4046;48.774;8.732;2024-01-15T22:07:51;22.40;59.70
8002;DHT22;4046;48.774;8.732;2024-01-15T22:10:17;22.40;59.70
8002;DHT22;4046;48.774;8.732;2024-01-15T22:12:43;22.40;59.70
8002;DHT22;4046;48.774;8.732;2024-01-15T22:15:09;22.40;59.70
8002;DHT22;4046;48.774;8.732;2024-01-15T22:17:35;22.40;59.70
8002;DHT22;4046;48.774;8.732;2024-01-15T22:20:01;22.40;59.70
8002;DHT22;4046;48.774;8.732;2024-01-15T22:25:32;22.40;59.70
8002;DHT22;4046;48.774;8.732;2024-01-15T22:31:22;22.40;59.70
8002;DHT22;4046;48.774;8.732;2024-01-15T22:33:48;22.40;59.70
8002;DHT22;4046;48.774;8.732;2024-01-15T22:36:32;22.40;59.70
8002;DHT22;4046;48.774;8.732;2024-01-15T22:39:35;22.40;59.70
8002;DHT22;4046;48.774;8.732;2024-01-15T22:42:41;22.40;59.70
8002;DHT22;4046;48.774;8.732;2024-01-15T22:49:08;22.40;59.70
8002;DHT22;4046;48.774;8.732;2024-01-15T22:51:35;22.40;59.80
8002;DHT22;4046;48.774;8.732;2024-01-15T22:54:01;22.40;59.80
8002;DHT22;4046;48.774;8.732;2024-01-15T23:03:45;22.40;59.70
8002;DHT22;4046;48.774;8.732;2024-01-15T23:06:20;22.40;59.70
8002;DHT22;4046;48.774;8.732;2024-01-15T23:16:25;22.40;59.70
8002;DHT22;4046;48.774;8.732;2024-01-15T23:22:12;22.40;59.80
8002;DHT22;4046;48.774;8.732;2024-01-15T23:24:39;22.40;59.80
8002;DHT22;4046;48.774;8.732;2024-01-15T23:27:05;22.40;59.80
8002;DHT22;4046;48.774;8.732;2024-01-15T23:29:34;22.40;59.80
8002;DHT22;4046;48.774;8.732;2024-01-15T23:32:00;22.40;59.80
8002;DHT22;4046;48.774;8.732;2024-01-15T23:34:26;22.40;59.70
8002;DHT22;4046;48.774;8.732;2024-01-15T23:36:52;22.40;59.80
8002;DHT22;4046;48.774;8.732;2024-01-15T23:39:18;22.40;59.70
8002;DHT22;4046;48.774;8.732;2024-01-15T23:42:09;22.40;59.70
8002;DHT22;4046;48.774;8.732;2024-01-15T23:44:35;22.50;59.80
8002;DHT22;4046;48.774;8.732;2024-01-15T23:47:34;22.50;59.80
8002;DHT22;4046;48.774;8.732;2024-01-15T23:50:00;22.40;59.70
8002;DHT22;4046;48.774;8.732;2024-01-15T23:52:26;22.40;59.70
8002;DHT22;4046;48.774;8.732;2024-01-15T23:54:52;22.40;59.80
8002;DHT22;4046;48.774;8.732;2024-01-15T23:57:18;22.50;59.80
8002;DHT22;4046;48.774;8.732;2024-01-15T23:59:43;22.40;59.70
